createdAt,value
2023-02-05T00:02:12.155Z,78560.94
2023-02-05T00:04:41.450Z,78579.41
2023-02-05T00:07:10.548Z,78606.38
2023-02-05T00:09:41.874Z,78605.00
2023-02-05T00:12:11.827Z,78582.75
2023-02-05T00:14:40.679Z,78546.69
2023-02-05T00:17:09.868Z,78550.69
2023-02-05T00:19:38.703Z,78575.75
2023-02-05T00:22:07.765Z,78573.13
2023-02-05T00:24:36.679Z,78570.47
2023-02-05T00:27:05.817Z,78578.34
2023-02-05T00:29:34.619Z,78576.34
2023-02-05T00:32:03.786Z,78594.19
2023-02-05T00:34:32.562Z,78564.56
2023-02-05T00:37:01.769Z,78591.56
2023-02-05T00:39:30.956Z,78569.84
2023-02-05T00:42:00.760Z,78562.59
2023-02-05T00:44:29.945Z,78567.19
2023-02-05T00:46:59.043Z,78561.91
2023-02-05T00:49:28.129Z,78573.78
2023-02-05T00:51:57.942Z,78588.25
2023-02-05T00:54:26.803Z,78548.06
2023-02-05T00:56:55.960Z,78570.47
2023-02-05T00:59:24.889Z,78587.63
2023-02-05T01:01:54.207Z,78597.50
2023-02-05T01:04:24.185Z,78586.28
2023-02-05T01:06:53.142Z,78592.22
2023-02-05T01:09:23.042Z,78577.06
2023-02-05T01:11:51.999Z,78600.78
2023-02-05T01:14:20.807Z,78594.84
2023-02-05T01:16:49.955Z,78596.16
2023-02-05T01:19:18.693Z,78596.19
2023-02-05T01:21:47.752Z,78602.75
2023-02-05T01:24:17.234Z,78593.53
2023-02-05T01:26:46.632Z,78596.81
2023-02-05T01:29:15.330Z,78586.94
2023-02-05T01:31:44.764Z,78577.69
2023-02-05T01:34:13.582Z,78590.88
2023-02-05T01:36:42.582Z,78581.66
2023-02-05T01:39:11.913Z,78579.72
2023-02-05T01:41:43.727Z,78567.84
2023-02-05T01:44:25.939Z,78581.03
2023-02-05T01:46:56.740Z,78565.22
2023-02-05T01:49:40.922Z,78574.44
2023-02-05T01:52:16.067Z,78563.88
2023-02-05T01:54:50.069Z,78583.66
2023-02-05T01:57:23.609Z,78590.25
2023-02-05T01:59:53.100Z,78571.81
2023-02-05T02:02:22.069Z,78590.91
2023-02-05T02:04:59.951Z,78602.75
2023-02-05T02:07:28.995Z,78604.72
2023-02-05T02:09:58.208Z,78570.41
2023-02-05T02:12:34.991Z,78589.91
2023-02-05T02:15:10.645Z,78585.19
2023-02-05T02:17:43.932Z,78583.56
2023-02-05T02:20:27.267Z,78593.75
2023-02-05T02:22:56.619Z,78615.75
2023-02-05T02:25:34.527Z,78614.88
2023-02-05T02:28:25.602Z,78618.50
2023-02-05T02:31:23.088Z,78616.13
2023-02-05T02:33:55.164Z,78622.16
2023-02-05T02:36:31.956Z,78631.59
2023-02-05T02:39:08.076Z,78633.53
2023-02-05T02:42:03.019Z,78635.47
2023-02-05T02:44:42.790Z,78637.09
2023-02-05T02:47:26.980Z,78635.56
2023-02-05T02:50:08.452Z,78636.03
2023-02-05T02:52:42.000Z,78650.78
2023-02-05T02:55:14.793Z,78659.63
2023-02-05T02:57:50.288Z,78661.06
2023-02-05T03:00:28.136Z,78666.53
2023-02-05T03:03:03.419Z,78665.00
2023-02-05T03:05:35.618Z,78665.66
2023-02-05T03:08:36.440Z,78667.81
2023-02-05T03:11:16.824Z,78671.75
2023-02-05T03:13:47.973Z,78680.91
2023-02-05T03:16:21.795Z,78674.19
2023-02-05T03:18:52.319Z,78665.25
2023-02-05T03:21:30.317Z,78641.34
2023-02-05T03:24:00.140Z,78665.47
2023-02-05T03:26:36.216Z,78681.38
2023-02-05T03:29:16.626Z,78677.13
2023-02-05T03:32:13.282Z,78684.47
2023-02-05T03:35:05.854Z,78684.59
2023-02-05T03:37:57.596Z,78681.06
2023-02-05T03:40:57.197Z,78679.09
2023-02-05T03:43:50.321Z,78667.56
2023-02-05T03:46:59.457Z,78694.16
2023-02-05T03:49:37.317Z,78692.41
2023-02-05T03:52:17.197Z,78695.25
2023-02-05T03:54:53.671Z,78695.31
2023-02-05T03:57:54.697Z,78681.19
2023-02-05T04:00:25.948Z,78682.88
2023-02-05T04:02:56.871Z,78701.41
2023-02-05T04:05:31.060Z,78694.81
2023-02-05T04:08:02.963Z,78687.09
2023-02-05T04:10:37.595Z,78703.88
2023-02-05T04:13:07.596Z,78697.41
2023-02-05T04:15:38.389Z,78705.72
2023-02-05T04:18:10.469Z,78704.66
2023-02-05T04:20:39.845Z,78699.91
2023-02-05T04:23:10.774Z,78696.44
2023-02-05T04:25:41.354Z,78702.09
2023-02-05T04:28:13.993Z,78680.47
2023-02-05T04:30:43.209Z,78713.59
2023-02-05T04:33:13.499Z,78686.97
2023-02-05T04:35:43.849Z,78691.66
2023-02-05T04:38:13.411Z,78688.56
2023-02-05T04:40:42.755Z,78713.50
2023-02-05T04:43:11.555Z,78704.44
2023-02-05T04:45:41.001Z,78699.28
2023-02-05T04:48:09.837Z,78713.94
2023-02-05T04:50:40.770Z,78697.59
2023-02-05T04:53:09.612Z,78711.38
2023-02-05T04:55:38.594Z,78703.66
2023-02-05T04:58:07.837Z,78728.09
2023-02-05T05:00:37.152Z,78716.34
2023-02-05T05:03:05.965Z,78723.38
2023-02-05T05:05:37.343Z,78728.56
2023-02-05T05:08:06.390Z,78705.03
2023-02-05T05:10:35.304Z,78695.53
2023-02-05T05:13:04.481Z,78718.91
2023-02-05T05:15:33.744Z,78725.09
2023-02-05T05:18:02.924Z,78710.25
2023-02-05T05:20:32.378Z,78731.97
2023-02-05T05:23:02.834Z,78725.44
2023-02-05T05:25:33.105Z,78715.72
2023-02-05T05:28:02.284Z,78742.16
2023-02-05T05:30:31.210Z,78750.97
2023-02-05T05:33:00.137Z,78729.69
2023-02-05T05:35:29.855Z,78737.16
2023-02-05T05:38:00.248Z,78732.88
2023-02-05T05:40:48.163Z,78743.25
2023-02-05T05:43:38.257Z,78742.66
2023-02-05T05:46:10.093Z,78735.75
2023-02-05T05:48:39.766Z,78727.91
2023-02-05T05:51:08.595Z,78724.13
2023-02-05T05:53:37.737Z,78727.59
2023-02-05T05:56:07.334Z,78720.41
2023-02-05T05:58:36.852Z,78741.56
2023-02-05T06:01:07.964Z,78729.78
2023-02-05T06:03:37.513Z,78739.72
2023-02-05T06:06:08.178Z,78731.44
2023-02-05T06:08:37.288Z,78724.41
2023-02-05T06:11:06.353Z,78723.25
2023-02-05T06:13:35.985Z,78727.72
2023-02-05T06:16:05.622Z,78713.88
2023-02-05T06:18:35.238Z,78721.72
2023-02-05T06:21:06.934Z,78716.34
2023-02-05T06:23:36.060Z,78721.81
2023-02-05T06:26:05.003Z,78724.59
2023-02-05T06:28:34.279Z,78726.72
2023-02-05T06:31:03.344Z,78682.75
2023-02-05T06:33:32.418Z,78717.59
2023-02-05T06:36:02.004Z,78728.94
2023-02-05T06:38:31.038Z,78725.50
2023-02-05T06:40:59.729Z,78723.28
2023-02-05T06:43:29.389Z,78727.63
2023-02-05T06:45:58.594Z,78710.91
2023-02-05T06:48:27.948Z,78709.84
2023-02-05T06:50:56.910Z,78722.44
2023-02-05T06:53:26.160Z,78722.75
2023-02-05T06:55:58.837Z,78722.91
2023-02-05T06:58:28.701Z,78712.00
2023-02-05T07:00:57.624Z,78723.47
2023-02-05T07:03:26.643Z,78698.78
2023-02-05T07:05:55.753Z,78712.22
2023-02-05T07:08:24.852Z,78709.56
2023-02-05T07:10:54.016Z,78688.44
2023-02-05T07:13:22.983Z,78702.41
2023-02-05T07:15:52.547Z,78707.00
2023-02-05T07:18:21.876Z,78683.94
2023-02-05T07:20:50.873Z,78683.88
2023-02-05T07:23:20.704Z,78691.09
2023-02-05T07:28:39.716Z,78683.03
2023-02-05T07:31:18.127Z,78683.50
2023-02-05T07:33:48.307Z,78677.28
2023-02-05T07:36:18.815Z,78680.31
2023-02-05T07:38:49.200Z,78669.19
2023-02-05T07:41:18.582Z,78664.78
2023-02-05T07:43:48.484Z,78656.63
2023-02-05T07:46:17.342Z,78645.50
2023-02-05T07:48:46.787Z,78655.78
2023-02-05T07:51:21.488Z,78654.41
2023-02-05T07:53:51.589Z,78652.88
2023-02-05T07:56:26.585Z,78660.75
2023-02-05T07:59:00.248Z,78646.66
2023-02-05T08:01:29.334Z,78643.84
2023-02-05T08:03:58.148Z,78654.97
2023-02-05T08:06:27.378Z,78639.91
2023-02-05T08:08:57.059Z,78635.84
2023-02-05T08:11:26.351Z,78627.88
2023-02-05T08:13:55.592Z,78616.41
2023-02-05T08:16:25.237Z,78601.25
2023-02-05T08:19:00.301Z,78610.66
2023-02-05T08:21:29.981Z,78594.41
2023-02-05T08:23:59.572Z,78614.81
2023-02-05T08:26:29.065Z,78596.69
2023-02-05T08:29:00.900Z,78594.22
2023-02-05T08:31:31.164Z,78588.56
2023-02-05T08:34:01.000Z,78602.53
2023-02-05T08:36:30.625Z,78604.19
2023-02-05T08:38:59.865Z,78569.22
2023-02-05T08:41:28.891Z,78548.63
2023-02-05T08:43:58.314Z,78583.25
2023-02-05T08:46:37.421Z,78572.09
2023-02-05T08:49:17.988Z,78547.22
2023-02-05T08:51:48.442Z,78569.88
2023-02-05T08:54:17.685Z,78559.69
2023-02-05T08:56:50.764Z,78547.81
2023-02-05T08:59:20.742Z,78560.13
2023-02-05T09:01:52.275Z,78534.81
2023-02-05T09:04:24.393Z,78530.50
2023-02-05T09:06:53.887Z,78530.78
2023-02-05T09:09:22.681Z,78537.47
2023-02-05T09:11:51.984Z,78534.78
2023-02-05T09:14:21.055Z,78541.97
2023-02-05T09:16:50.209Z,78545.00
2023-02-05T09:19:19.046Z,78540.13
2023-02-05T09:21:48.568Z,78560.59
2023-02-05T09:24:17.623Z,78551.81
2023-02-05T09:26:46.675Z,78521.06
2023-02-05T09:29:16.145Z,78558.88
2023-02-05T09:31:45.459Z,78565.97
2023-02-05T09:34:15.755Z,78568.69
2023-02-05T09:36:45.246Z,78568.13
2023-02-05T09:39:34.583Z,78559.59
2023-02-05T09:42:25.101Z,78557.66
2023-02-05T09:45:36.155Z,78546.44
2023-02-05T09:48:58.867Z,78557.25
2023-02-05T09:51:42.316Z,78555.06
2023-02-05T09:54:14.374Z,78553.91
2023-02-05T09:56:49.016Z,78556.28
2023-02-05T09:59:25.073Z,78546.38
2023-02-05T10:01:58.662Z,78550.81
2023-02-05T10:04:29.121Z,78544.94
2023-02-05T10:07:04.636Z,78538.63
2023-02-05T10:10:08.412Z,78545.63
2023-02-05T10:12:42.029Z,78540.84
2023-02-05T10:15:41.510Z,78537.94
2023-02-05T10:18:26.821Z,78544.72
2023-02-05T10:21:29.587Z,78536.28
2023-02-05T10:24:07.616Z,78541.53
2023-02-05T10:26:51.085Z,78521.91
2023-02-05T10:29:40.241Z,78529.53
2023-02-05T10:32:24.718Z,78560.91
2023-02-05T10:34:58.983Z,78565.91
2023-02-05T10:37:50.171Z,78570.69
2023-02-05T10:40:27.477Z,78554.00
2023-02-05T10:43:12.535Z,78573.94
2023-02-05T10:45:41.624Z,78546.13
2023-02-05T10:48:26.136Z,78571.78
2023-02-05T10:51:07.989Z,78570.09
2023-02-05T10:53:37.480Z,78556.63
2023-02-05T10:56:07.836Z,78561.31
2023-02-05T10:59:08.677Z,78553.53
2023-02-05T11:01:39.765Z,78522.28
2023-02-05T11:04:17.068Z,78561.72
2023-02-05T11:06:49.674Z,78566.56
2023-02-05T11:09:39.913Z,78569.28
2023-02-05T11:12:23.976Z,78562.91
2023-02-05T11:15:00.238Z,78546.09
2023-02-05T11:17:39.146Z,78557.84
2023-02-05T11:20:13.421Z,78536.25
2023-02-05T11:22:42.616Z,78565.25
2023-02-05T11:25:19.344Z,78567.84
2023-02-05T11:28:02.183Z,78564.53
2023-02-05T11:30:52.670Z,78569.78
2023-02-05T11:33:29.003Z,78573.78
2023-02-05T11:36:07.523Z,78563.78
2023-02-05T11:38:58.082Z,78569.06
2023-02-05T11:41:52.921Z,78559.22
2023-02-05T11:44:36.627Z,78553.34
2023-02-05T11:47:06.335Z,78535.13
2023-02-05T11:49:39.518Z,78547.75
2023-02-05T11:52:16.769Z,78554.16
2023-02-05T11:54:48.940Z,78552.22
2023-02-05T11:57:21.523Z,78545.56
2023-02-05T11:59:57.134Z,78541.56
2023-02-05T12:02:34.633Z,78472.09
2023-02-05T12:05:20.901Z,78543.19
2023-02-05T12:07:53.577Z,78545.25
2023-02-05T12:10:59.197Z,78536.81
2023-02-05T12:14:18.538Z,78530.28
2023-02-05T12:16:58.749Z,78510.47
2023-02-05T12:19:51.442Z,78532.94
2023-02-05T12:22:37.310Z,78514.63
2023-02-05T12:25:17.452Z,78540.91
2023-02-05T12:28:24.781Z,78492.44
2023-02-05T12:31:09.938Z,78527.94
2023-02-05T12:33:41.678Z,78529.25
2023-02-05T12:36:27.984Z,78504.31
2023-02-05T12:39:26.413Z,78528.81
2023-02-05T12:42:16.214Z,78540.19
2023-02-05T12:44:57.712Z,78538.31
2023-02-05T12:47:45.230Z,78541.03
2023-02-05T12:50:25.723Z,78526.66
2023-02-05T12:53:06.230Z,78536.59
2023-02-05T12:56:08.174Z,78537.91
2023-02-05T12:58:44.022Z,78488.69
2023-02-05T13:01:21.126Z,78534.09
2023-02-05T13:03:56.740Z,78536.81
2023-02-05T13:06:29.861Z,78521.09
2023-02-05T13:09:27.602Z,78534.94
2023-02-05T13:12:19.732Z,78535.63
2023-02-05T13:15:06.000Z,78533.06
2023-02-05T13:17:47.885Z,78509.44
2023-02-05T13:21:03.007Z,78531.16
2023-02-05T13:23:51.826Z,78516.00
2023-02-05T13:26:46.191Z,78522.06
2023-02-05T13:29:20.569Z,78537.81
2023-02-05T13:32:17.070Z,78534.63
2023-02-05T13:34:46.778Z,78513.97
2023-02-05T13:37:18.341Z,78545.75
2023-02-05T13:40:26.517Z,78546.59
2023-02-05T13:43:17.942Z,78549.34
2023-02-05T13:46:17.212Z,78525.84
2023-02-05T13:49:11.409Z,78536.47
2023-02-05T13:51:49.105Z,78552.22
2023-02-05T13:54:36.019Z,78552.13
2023-02-05T13:57:15.594Z,78550.81
2023-02-05T13:59:52.537Z,78541.63
2023-02-05T14:02:42.629Z,78558.72
2023-02-05T14:05:14.777Z,78575.88
2023-02-05T14:07:46.998Z,78571.91
2023-02-05T14:10:41.903Z,78570.59
2023-02-05T14:13:25.613Z,78582.44
2023-02-05T14:16:01.566Z,78571.22
2023-02-05T14:18:45.526Z,78580.38
2023-02-05T14:21:35.977Z,78577.72
2023-02-05T14:24:28.547Z,78583.00
2023-02-05T14:27:01.552Z,78558.59
2023-02-05T14:29:42.982Z,78583.59
2023-02-05T14:32:14.050Z,78573.16
2023-02-05T14:34:42.929Z,78584.31
2023-02-05T14:37:43.232Z,78588.28
2023-02-05T14:40:39.448Z,78594.84
2023-02-05T14:43:22.694Z,78594.19
2023-02-05T14:45:53.387Z,78579.81
2023-02-05T14:48:36.340Z,78608.72
2023-02-05T14:51:16.151Z,78612.03
2023-02-05T14:53:56.159Z,78600.94
2023-02-05T14:56:49.994Z,78637.22
2023-02-05T14:59:38.024Z,78640.53
2023-02-05T15:02:45.123Z,78641.91
2023-02-05T15:05:23.461Z,78637.28
2023-02-05T15:08:01.511Z,78626.72
2023-02-05T15:10:38.882Z,78637.94
2023-02-05T15:13:19.057Z,78647.16
2023-02-05T15:16:19.018Z,78651.13
2023-02-05T15:19:00.040Z,78647.81
2023-02-05T15:21:52.324Z,78635.94
2023-02-05T15:24:25.239Z,78631.38
2023-02-05T15:27:03.845Z,78624.13
2023-02-05T15:29:38.502Z,78620.88
2023-02-05T15:32:44.543Z,78609.03
2023-02-05T15:35:19.251Z,78607.72
2023-02-05T15:37:56.031Z,78587.97
2023-02-05T15:40:33.760Z,78566.91
2023-02-05T15:43:17.836Z,78595.88
2023-02-05T15:45:48.389Z,78591.25
2023-02-05T15:48:23.925Z,78576.16
2023-02-05T15:51:25.108Z,78579.47
2023-02-05T15:53:58.746Z,78606.50
2023-02-05T15:56:33.773Z,78588.69
2023-02-05T15:59:03.140Z,78614.41
2023-02-05T16:01:35.923Z,78615.75
2023-02-05T16:04:23.893Z,78630.25
2023-02-05T16:06:53.402Z,78621.66
2023-02-05T16:09:26.069Z,78619.03
2023-02-05T16:11:56.735Z,78616.38
2023-02-05T16:14:29.673Z,78593.28
2023-02-05T16:17:18.707Z,78618.97
2023-02-05T16:19:56.203Z,78630.16
2023-02-05T16:22:28.146Z,78614.41
2023-02-05T16:25:02.311Z,78640.75
2023-02-05T16:27:42.423Z,78609.19
2023-02-05T16:30:35.344Z,78602.56
2023-02-05T16:33:06.610Z,78600.59
2023-02-05T16:35:40.669Z,78603.84
2023-02-05T16:38:18.794Z,78605.84
2023-02-05T16:40:51.856Z,78626.91
2023-02-05T16:43:30.791Z,78646.03
2023-02-05T16:46:08.793Z,78647.38
2023-02-05T16:48:52.212Z,78624.34
2023-02-05T16:51:42.317Z,78638.16
2023-02-05T16:54:26.841Z,78640.13
2023-02-05T16:57:05.281Z,78649.38
2023-02-05T16:59:50.342Z,78632.88
2023-02-05T17:02:30.871Z,78625.59
2023-02-05T17:05:02.435Z,78610.47
2023-02-05T17:07:32.485Z,78607.84
2023-02-05T17:10:17.756Z,78597.91
2023-02-05T17:12:52.204Z,78607.81
2023-02-05T17:15:21.129Z,78588.69
2023-02-05T17:17:59.059Z,78572.31
2023-02-05T17:20:30.793Z,78605.31
2023-02-05T17:23:04.414Z,78621.81
2023-02-05T17:25:43.826Z,78606.00
2023-02-05T17:28:17.844Z,78577.06
2023-02-05T17:30:49.545Z,78601.41
2023-02-05T17:33:22.623Z,78595.47
2023-02-05T17:35:52.038Z,78594.16
2023-02-05T17:38:21.548Z,78579.00
2023-02-05T17:40:51.119Z,78575.06
2023-02-05T17:43:20.655Z,78550.66
2023-02-05T17:45:49.461Z,78541.44
2023-02-05T17:48:19.190Z,78557.91
2023-02-05T17:50:49.541Z,78537.47
2023-02-05T17:53:18.780Z,78555.25
2023-02-05T17:55:47.926Z,78536.16
2023-02-05T17:58:17.627Z,78530.91
2023-02-05T18:00:46.456Z,78533.59
2023-02-05T18:03:16.397Z,78547.41
2023-02-05T18:05:46.017Z,78558.63
2023-02-05T18:08:15.418Z,78533.59
2023-02-05T18:10:45.946Z,78547.44
2023-02-05T18:13:17.641Z,78534.28
2023-02-05T18:15:47.195Z,78541.50
2023-02-05T18:18:16.180Z,78555.34
2023-02-05T18:20:52.045Z,78556.66
2023-02-05T18:23:28.890Z,78547.44
2023-02-05T18:26:00.256Z,78546.13
2023-02-05T18:28:29.960Z,78534.94
2023-02-05T18:31:04.532Z,78574.44
2023-02-05T18:33:34.577Z,78573.78
2023-02-05T18:36:10.862Z,78573.78
2023-02-05T18:38:42.192Z,78563.22
2023-02-05T18:41:14.145Z,78581.00
2023-02-05T18:43:44.090Z,78590.91
2023-02-05T18:46:16.916Z,78558.63
2023-02-05T18:48:50.201Z,78563.91
2023-02-05T18:51:21.574Z,78577.09
2023-02-05T18:53:51.238Z,78575.75
2023-02-05T18:56:23.794Z,78569.81
2023-02-05T18:59:00.788Z,78558.63
2023-02-05T19:01:38.171Z,78581.00
2023-02-05T19:04:14.072Z,78573.09
2023-02-05T19:06:47.766Z,78551.34
2023-02-05T19:09:16.759Z,78519.09
2023-02-05T19:11:47.367Z,78572.41
2023-02-05T19:14:18.739Z,78582.94
2023-02-05T19:16:48.481Z,78576.31
2023-02-05T19:19:26.011Z,78583.56
2023-02-05T19:22:00.983Z,78580.22
2023-02-05T19:24:30.320Z,78588.13
2023-02-05T19:27:02.678Z,78596.59
2023-02-05T19:29:31.910Z,78576.16
2023-02-05T19:32:01.377Z,78580.09
2023-02-05T19:34:30.710Z,78568.22
2023-02-05T19:36:59.658Z,78563.59
2023-02-05T19:39:29.215Z,78537.25
2023-02-05T19:41:58.106Z,78538.59
2023-02-05T19:44:28.593Z,78501.06
2023-02-05T19:46:57.665Z,78565.63
2023-02-05T19:49:26.493Z,78530.75
2023-02-05T19:51:57.202Z,78540.66
2023-02-05T19:54:26.306Z,78530.13
2023-02-05T19:56:55.504Z,78530.06
2023-02-05T19:59:25.593Z,78518.91
2023-02-05T20:01:54.956Z,78527.53
2023-02-05T20:04:26.980Z,78524.88
2023-02-05T20:06:58.463Z,78518.97
2023-02-05T20:09:29.168Z,78519.00
2023-02-05T20:11:59.069Z,78517.66
2023-02-05T20:14:27.926Z,78512.38
2023-02-05T20:16:58.269Z,78498.56
2023-02-05T20:19:27.490Z,78519.66
2023-02-05T20:21:56.612Z,78523.59
2023-02-05T20:24:25.922Z,78510.44
2023-02-05T20:26:55.201Z,78493.97
2023-02-05T20:29:42.296Z,78501.91
2023-02-05T20:32:11.534Z,78491.38
2023-02-05T20:34:45.814Z,78501.25
2023-02-05T20:37:15.039Z,78503.19
2023-02-05T20:39:46.283Z,78534.13
2023-02-05T20:42:16.159Z,78546.59
2023-02-05T20:44:45.705Z,78545.25
2023-02-05T20:47:16.228Z,78563.72
2023-02-05T20:49:45.490Z,78573.56
2023-02-05T20:52:14.523Z,78557.69
2023-02-05T20:54:43.718Z,78578.78
2023-02-05T20:57:12.545Z,78575.44
2023-02-05T20:59:42.014Z,78577.97
2023-02-05T21:02:11.713Z,78578.63
2023-02-05T21:04:40.832Z,78565.41
2023-02-05T21:07:09.650Z,78550.94
2023-02-05T21:09:38.847Z,78560.84
2023-02-05T21:12:08.283Z,78546.31
2023-02-05T21:14:37.358Z,78551.56
2023-02-05T21:17:10.242Z,78540.38
2023-02-05T21:19:42.707Z,78558.84
2023-02-05T21:22:12.239Z,78561.47
2023-02-05T21:24:41.182Z,78543.66
2023-02-05T21:27:10.548Z,78549.63
2023-02-05T21:29:39.782Z,78548.91
2023-02-05T21:32:09.016Z,78550.25
2023-02-05T21:34:38.223Z,78530.53
2023-02-05T21:37:07.807Z,78553.59
2023-02-05T21:39:38.160Z,78548.97
2023-02-05T21:42:07.315Z,78543.69
2023-02-05T21:44:36.290Z,78541.09
2023-02-05T21:47:05.492Z,78541.75
2023-02-05T21:49:34.962Z,78543.75
2023-02-05T21:52:04.014Z,78545.72
2023-02-05T21:54:32.853Z,78527.28
2023-02-05T21:57:01.853Z,78531.88
2023-02-05T21:59:30.950Z,78537.16
2023-02-05T22:02:00.258Z,78523.34
2023-02-05T22:04:30.350Z,78524.00
2023-02-05T22:06:59.724Z,78508.88
2023-02-05T22:09:28.927Z,78522.72
2023-02-05T22:12:04.510Z,78524.72
2023-02-05T22:14:34.902Z,78538.56
2023-02-05T22:17:04.237Z,78535.97
2023-02-05T22:19:33.119Z,78542.56
2023-02-05T22:22:02.416Z,78510.97
2023-02-05T22:24:31.300Z,78520.22
2023-02-05T22:27:00.849Z,78529.44
2023-02-05T22:29:29.962Z,78523.50
2023-02-05T22:31:59.163Z,78527.50
2023-02-05T22:34:28.953Z,78518.97
2023-02-05T22:36:58.206Z,78512.34
2023-02-05T22:39:27.234Z,78500.50
2023-02-05T22:41:56.244Z,78510.38
2023-02-05T22:44:25.051Z,78515.66
2023-02-05T22:46:54.041Z,78510.41
